FAOR/JNB METAR and TAF weather

Enter ICAO airport designator
Station Type Date Time Source
FAOR METAR 2019/04/18 20:00 UTC NOAA

FAOR 182000Z 31005KT CAVOK 18/13 Q1028 NOSIG


Station Type Date Time Source
FAOR Decoded METAR 2019/04/18 20:00 UTC NOAA

Station name not available
Apr 18, 2019 - 04:00 PM EDT / 2019.04.18 2000 UTC
Wind: from the NW (310 degrees) at 6 MPH (5 KT):0
Visibility: greater than 7 mile(s):0
Temperature: 64 F (18 C)
Dew Point: 55 F (13 C)
Relative Humidity: 72%
Pressure (altimeter): 30.36 in. Hg (1028 hPa)
ob: FAOR 182000Z 31005KT CAVOK 18/13 Q1028 NOSIG
cycle: 20

Station Type Date Time Source
FAOR TAF 2019/04/18 18:00 UTC NOAA

TAF FAOR 181600Z 1818/1924 32007KT CAVOK TX24/1913Z TN14/1905Z
BECMG 1900/1902 02010KT
BECMG 1907/1909 32012KT PROB30
TEMPO 1913/1916 FEW040TCU
BECMG 1920/1922 09010KT
FM192200 03007KT CAVOK

Example: see airport list